Latest Weather Observations for Roseworthy

IDS60901

Issued at 11:01 pm CST Sunday 24 May 2015 (issued every 10 minutes, with the page automatically refreshed every 10 minutes)

About weather observations | Map of Adelaide area stations | Latest observations for Adelaide area | Other Formats
Station Details ID: 023122 Name: ROSEWORTHY AWS Lat: -34.51 Lon: 138.68 Height: 65.0 m
Data from the previous 72 hours. | See also: Recent months at Roseworthy
Date/Time
CST
Tmp

°C
App
Tmp
°C
Dew
Point
°C
Rel
Hum
%
Delta-T

°C
Wind Press
QNH
hPa
Press
MSL
hPa
Rain
since
9 am
mm
Dir
 
Spd
km/h
Gust
km/h
Spd
kts
Gust
kts
24/11:00pm 11.5 9.1 6.8 73 2.2 NE 9 11 5 6 1028.0 - 0.0
24/10:30pm 11.6 8.5 7.1 74 2.2 ENE 13 15 7 8 1028.1 - 0.0
24/10:00pm 12.0 8.9 7.3 73 2.3 NE 13 17 7 9 1028.3 - 0.0
24/09:30pm 11.8 8.0 7.7 76 2.0 ENE 17 20 9 11 1027.9 - 0.0
24/09:00pm 12.4 9.1 8.1 75 2.1 NE 15 20 8 11 1028.3 1028.4 0.0
24/08:30pm 12.6 9.3 7.9 73 2.3 NE 15 19 8 10 1028.1 - 0.0
24/08:00pm 12.6 9.6 7.7 72 2.4 E 13 17 7 9 1027.4 - 0.0
24/07:30pm 12.4 10.1 7.5 72 2.4 ENE 9 13 5 7 1027.8 - 0.0
24/07:00pm 12.6 9.3 8.1 74 2.2 ESE 15 20 8 11 1027.5 - 0.0
24/06:30pm 11.7 9.5 7.8 77 1.9 NE 9 11 5 6 1028.6 - 0.0
24/06:00pm 12.4 10.8 7.9 74 2.2 E 6 7 3 4 1028.1 1028.2 0.0
24/05:30pm 12.8 12.3 7.9 72 2.4 CALM 0 7 0 4 1027.6 - 0.0
24/05:00pm 13.9 13.1 8.1 68 2.9 ESE 2 6 1 3 1027.6 - 0.0
24/04:30pm 14.8 13.5 7.8 63 3.5 S 4 7 2 4 1027.4 - 0.0
24/04:00pm 15.6 13.7 6.9 56 4.3 WSW 6 6 3 3 1027.6 - 0.0
24/03:30pm 16.1 13.6 6.5 53 4.7 WNW 9 11 5 6 1027.5 - 0.0
24/03:00pm 16.3 13.8 6.4 52 4.8 NW 9 13 5 7 1027.2 1027.3 0.0
24/02:30pm 16.3 13.4 6.4 52 4.9 NW 11 13 6 7 1027.2 - 0.0
24/02:00pm 16.3 13.4 6.4 52 4.9 NNW 11 17 6 9 1027.2 - 0.0
24/01:30pm 16.4 13.4 6.2 51 5.0 NW 11 17 6 9 1027.5 - 0.0
24/01:00pm 16.3 14.1 6.4 52 4.9 NW 7 11 4 6 1027.5 - 0.0
24/12:30pm 16.7 12.9 5.9 49 5.3 NNW 15 19 8 10 1027.9 - 0.0
24/12:00pm 16.5 12.9 6.9 53 4.7 N 15 22 8 12 1028.0 1028.1 0.0
24/11:30am 15.6 11.7 7.1 57 4.2 N 17 20 9 11 1028.4 - 0.0
24/11:00am 14.8 10.4 6.4 57 4.1 N 19 22 10 12 1028.6 - 0.0
24/10:30am 14.8 10.7 6.4 57 4.1 N 17 24 9 13 1028.8 - 0.0
24/10:00am 13.7 10.8 6.3 61 3.5 NNE 11 17 6 9 1028.8 - 0.0
24/09:30am 13.0 9.4 6.6 65 3.1 NE 15 19 8 10 1028.7 - 0.0
24/09:00am 12.3 8.0 7.0 70 2.5 NNE 19 24 10 13 1028.7 1028.8 0.0
24/08:30am 10.2 6.1 6.4 77 1.8 NE 17 20 9 11 1028.4 - 0.0
24/08:00am 9.5 4.8 5.9 78 1.7 NE 20 24 11 13 1028.1 - 0.0
24/07:30am 8.9 4.1 5.5 79 1.5 NE 20 26 11 14 1027.9 - 0.0
24/07:00am 8.5 3.6 5.3 80 1.4 NE 20 24 11 13 1027.9 - 0.0
24/06:30am 8.5 3.8 5.3 80 1.4 NE 19 24 10 13 1027.8 - 0.0
24/06:00am 8.4 3.5 5.3 81 1.4 NE 20 26 11 14 1027.5 1027.6 0.0
24/05:30am 8.3 3.0 5.1 80 1.4 NE 22 28 12 15 1027.1 - 0.0
24/05:00am 8.0 2.7 4.9 81 1.4 NE 22 28 12 15 1027.2 - 0.0
24/04:30am 8.0 2.3 4.9 81 1.4 NE 24 30 13 16 1027.2 - 0.0
24/04:00am 7.9 2.6 4.8 81 1.4 ENE 22 26 12 14 1027.2 - 0.0
24/03:30am 8.1 2.4 5.0 81 1.4 ENE 24 30 13 16 1027.2 - 0.0
24/03:00am 8.0 2.7 4.9 81 1.4 NE 22 28 12 15 1027.4 1027.5 0.0
24/02:30am 8.1 2.8 5.2 82 1.3 NE 22 28 12 15 1027.4 - 0.0
24/02:00am 8.1 2.8 5.2 82 1.3 ENE 22 28 12 15 1027.5 - 0.0
24/01:30am 8.2 4.7 5.5 83 1.2 NE 13 19 7 10 1027.7 - 0.0
24/01:00am 8.5 5.0 5.6 82 1.3 NE 13 19 7 10 1027.9 - 0.0
24/12:30am 8.6 5.5 5.5 81 1.4 E 11 15 6 8 1028.0 - 0.0
24/12:00am 8.8 4.9 5.5 80 1.5 ENE 15 20 8 11 1028.1 1028.2 0.0
 
Date/Time
CST
Tmp

°C
App
Tmp
°C
Dew
Point
°C
Rel
Hum
%
Delta-T

°C
Wind Press
QNH
hPa
Press
MSL
hPa
Rain
since
9 am
mm
Dir
 
Spd
km/h
Gust
km/h
Spd
kts
Gust
kts
23/11:30pm 8.8 5.7 5.7 81 1.4 ENE 11 17 6 9 1028.1 - 0.0
23/11:00pm 9.5 5.4 6.4 81 1.4 ENE 17 22 9 12 1028.1 - 0.0
23/10:30pm 9.5 5.4 6.2 80 1.5 ENE 17 20 9 11 1028.3 - 0.0
23/10:00pm 9.9 5.3 6.4 79 1.6 NE 20 24 11 13 1028.6 - 0.0
23/09:30pm 10.7 5.7 6.6 76 1.9 ENE 22 28 12 15 1028.6 - 0.0
23/09:00pm 10.9 5.6 6.8 76 1.9 ENE 24 32 13 17 1028.5 1028.6 0.0
23/08:30pm 10.9 6.0 7.0 77 1.9 ENE 22 28 12 15 1028.4 - 0.0
23/08:00pm 11.0 6.1 6.9 76 2.0 ENE 22 30 12 16 1028.4 - 0.0
23/07:30pm 11.3 7.0 7.0 75 2.1 NE 19 24 10 13 1028.6 - 0.0
23/07:00pm 11.6 7.4 7.3 75 2.1 ENE 19 22 10 12 1028.3 - 0.0
23/06:30pm 12.3 8.1 7.6 73 2.3 ENE 19 24 10 13 1028.2 - 0.0
23/06:00pm 12.7 9.0 7.8 72 2.4 E 17 20 9 11 1028.3 1028.4 0.0
23/05:30pm 12.8 9.4 7.7 71 2.5 E 15 17 8 9 1028.3 - 0.0
23/05:00pm 14.3 11.4 8.0 66 3.1 E 13 15 7 8 1028.3 - 0.0
23/04:30pm 16.0 13.4 7.7 58 4.2 E 11 17 6 9 1028.1 - 0.0
23/04:00pm 17.3 14.6 7.4 52 5.0 E 11 15 6 8 1028.1 - 0.0
23/03:30pm 17.5 15.2 7.5 52 5.1 E 9 13 5 7 1028.2 - 0.0
23/03:00pm 17.2 15.5 8.4 56 4.5 SSE 7 11 4 6 1028.3 1028.4 0.0
23/02:30pm 17.7 15.8 7.4 51 5.2 NE 7 13 4 7 1028.5 - 0.0
23/02:00pm 17.6 15.5 6.8 49 5.4 NE 7 13 4 7 1028.5 - 0.0
23/01:30pm 17.4 15.5 7.5 52 5.0 NNW 7 11 4 6 1028.7 - 0.0
23/01:00pm 16.7 14.9 7.1 53 4.8 NE 6 11 3 6 1029.1 - 0.0
23/12:30pm 16.1 13.7 6.8 54 4.6 E 9 13 5 7 1029.6 - 0.0
23/12:00pm 16.3 14.7 7.8 57 4.3 NE 6 13 3 7 1030.1 1030.2 0.0
23/11:30am 15.4 12.9 6.7 56 4.3 NE 9 19 5 10 1030.7 - 0.0
23/11:00am 14.6 10.6 8.1 65 3.3 NE 19 24 10 13 1031.1 - 0.0
23/10:30am 13.4 8.3 7.6 68 2.9 NE 24 30 13 16 1031.3 - 0.0
23/10:00am 12.3 7.5 7.4 72 2.4 ENE 22 28 12 15 1031.4 - 0.0
23/09:30am 11.2 5.5 6.9 75 2.1 ENE 26 32 14 17 1031.4 - 0.0
23/09:00am 9.8 4.0 6.2 78 1.7 ENE 26 32 14 17 1031.3 1031.4 0.0
23/08:30am 8.5 3.3 5.4 81 1.4 ENE 22 30 12 16 1031.3 - 0.0
23/08:00am 7.7 2.4 4.8 82 1.3 ENE 22 30 12 16 1031.2 - 0.0
23/07:30am 7.3 2.3 4.4 82 1.3 ENE 20 26 11 14 1031.1 - 0.0
23/07:00am 6.6 1.5 4.1 84 1.1 E 20 26 11 14 1030.8 - 0.0
23/06:30am 6.3 1.8 4.0 85 1.0 E 17 20 9 11 1030.8 - 0.0
23/06:00am 6.3 1.8 4.0 85 1.0 E 17 20 9 11 1030.6 1030.7 0.0
23/05:30am 6.4 2.3 4.2 86 0.9 E 15 19 8 10 1030.5 - 0.0
23/05:00am 5.0 1.1 3.2 88 0.7 E 13 17 7 9 1030.5 - 0.0
23/04:30am 5.3 1.0 3.5 88 0.8 E 15 17 8 9 1030.4 - 0.0
23/04:00am 4.7 0.8 3.5 92 0.5 E 13 17 7 9 1030.4 - 0.0
23/03:30am 3.5 0.1 1.9 89 0.6 E 9 11 5 6 1030.7 - 0.0
23/03:00am 3.8 0.5 2.3 90 0.6 ENE 9 11 5 6 1030.8 1030.9 0.0
23/02:30am 4.0 1.3 2.4 89 0.6 ENE 6 7 3 4 1031.0 - 0.0
23/02:00am 4.8 2.0 3.0 88 0.7 E 7 9 4 5 1031.0 - 0.0
23/01:30am 5.7 2.9 3.0 83 1.1 E 7 9 4 5 1031.1 - 0.0
23/01:00am 6.8 3.9 4.8 87 0.9 ESE 9 11 5 6 1031.0 - 0.0
23/12:30am 6.0 3.0 4.2 88 0.8 E 9 11 5 6 1031.0 - 0.0
23/12:00am 5.9 2.5 4.1 88 0.8 ESE 11 15 6 8 1031.0 1031.1 0.0
 
Date/Time
CST
Tmp

°C
App
Tmp
°C
Dew
Point
°C
Rel
Hum
%
Delta-T

°C
Wind Press
QNH
hPa
Press
MSL
hPa
Rain
since
9 am
mm
Dir
 
Spd
km/h
Gust
km/h
Spd
kts
Gust
kts
22/11:30pm 5.2 2.1 3.5 89 0.7 ESE 9 11 5 6 1031.1 - 0.0
22/11:00pm 5.2 2.1 3.7 90 0.6 E 9 11 5 6 1031.3 - 0.0
22/10:30pm 5.8 2.7 3.5 85 1.0 E 9 11 5 6 1031.4 - 0.0
22/10:00pm 6.9 4.0 4.7 86 1.0 E 9 11 5 6 1031.5 - 0.0
22/09:30pm 6.9 3.6 4.6 85 1.0 E 11 13 6 7 1031.4 - 0.0
22/09:00pm 7.4 4.9 4.7 83 1.2 ESE 7 9 4 5 1031.5 1031.6 0.0
22/08:30pm 9.1 6.3 5.3 77 1.7 SE 9 11 5 6 1031.4 - 0.0
22/08:00pm 9.1 5.9 5.3 77 1.7 SE 11 11 6 6 1031.3 - 0.0
22/07:30pm 9.5 6.4 5.5 76 1.8 SE 11 13 6 7 1031.2 - 0.0
22/07:00pm 10.0 7.0 5.8 75 1.9 ESE 11 13 6 7 1031.1 - 0.0
22/06:30pm 10.6 7.6 6.0 73 2.1 ESE 11 13 6 7 1030.9 - 0.0
22/06:00pm 11.9 9.0 6.6 70 2.5 ESE 11 15 6 8 1030.6 1030.7 0.0
22/05:30pm 12.9 11.1 8.0 72 2.4 SSE 7 11 4 6 1030.2 - 0.0
22/05:00pm 13.0 11.2 7.9 71 2.5 S 7 9 4 5 1030.3 - 0.0
22/04:30pm 14.1 11.5 7.6 65 3.2 S 11 15 6 8 1030.3 - 0.0
22/04:00pm 14.9 13.0 7.5 61 3.7 SSW 7 13 4 7 1030.3 - 0.0
22/03:30pm 14.6 12.3 7.4 62 3.6 SSW 9 15 5 8 1030.3 - 0.0
22/03:00pm 14.7 11.7 7.7 63 3.5 SW 13 19 7 10 1030.3 1030.4 0.0
22/02:30pm 15.0 11.8 6.8 58 4.0 SSE 13 17 7 9 1030.2 - 0.0
22/02:00pm 14.8 12.0 7.1 60 3.8 SSE 11 15 6 8 1030.3 - 0.0
22/01:30pm 14.3 11.0 6.6 60 3.7 S 13 17 7 9 1030.6 - 0.0
22/01:00pm 14.2 10.7 7.0 62 3.5 S 15 19 8 10 1030.6 - 0.0
22/12:30pm 14.4 11.4 7.9 65 3.2 S 13 20 7 11 1030.8 - 0.0
22/12:00pm 14.8 11.6 8.3 65 3.2 S 15 20 8 11 1031.0 1031.1 0.0
22/11:30am 13.9 11.4 8.1 68 2.9 S 11 19 6 10 1031.4 - 0.0
22/11:00am 13.3 9.9 7.5 68 2.8 ESE 15 19 8 10 1031.6 - 0.0
22/10:30am 12.7 9.3 7.6 71 2.5 ESE 15 20 8 11 1031.8 - 0.0
22/10:00am 12.0 8.7 8.1 77 1.9 SE 15 19 8 10 1031.8 - 0.0
22/09:30am 11.4 8.0 7.7 78 1.8 ESE 15 20 8 11 1031.6 - 0.0
22/09:00am 11.1 7.6 7.4 78 1.8 SE 15 20 8 11 1031.5 1031.6 0.2
22/08:30am 10.7 7.5 8.3 85 1.2 SE 15 19 8 10 1030.9 - 0.2
22/08:00am 9.2 7.0 8.0 92 0.6 SE 9 11 5 6 1031.0 - 0.2
22/07:30am 7.3 5.1 6.2 93 0.5 SE 7 11 4 6 1030.6 - 0.2
22/07:00am 6.3 5.2 5.3 93 0.4 CALM 0 0 0 0 1030.2 - 0.2
22/06:30am 5.5 4.2 4.3 92 0.5 CALM 0 0 0 0 1029.8 - 0.2
22/06:00am 5.5 2.9 4.3 92 0.5 ENE 7 9 4 5 1029.5 1029.6 0.2
22/05:30am 7.0 4.9 5.9 93 0.5 E 6 7 3 4 1029.2 - 0.2
22/05:00am 6.8 4.7 5.7 93 0.5 NE 6 7 3 4 1029.2 - 0.2
22/04:30am 5.6 2.7 4.6 93 0.4 ENE 9 11 5 6 1029.2 - 0.2
22/04:00am 4.6 2.0 3.4 92 0.5 NE 6 9 3 5 1029.0 - 0.2
22/03:30am 4.4 1.6 3.2 92 0.5 ENE 7 11 4 6 1029.1 - 0.2
22/03:00am 4.8 1.7 3.6 92 0.5 NE 9 9 5 5 1029.1 1029.2 0.2
22/02:30am 5.4 3.0 4.2 92 0.5 N 6 7 3 4 1029.1 - 0.2
22/02:00am 6.3 4.1 5.1 92 0.5 NW 6 9 3 5 1029.2 - 0.2
22/01:30am 6.2 5.0 4.8 91 0.6 CALM 0 0 0 0 1029.1 - 0.2
22/01:00am 6.5 4.3 5.3 92 0.5 N 6 7 3 4 1029.2 - 0.2
22/12:30am 5.2 3.8 3.7 90 0.6 CALM 0 0 0 0 1029.2 - 0.2
22/12:00am 5.5 3.0 4.0 90 0.6 ENE 6 9 3 5 1029.1 1029.2 0.2
 
Date/Time
CST
Tmp

°C
App
Tmp
°C
Dew
Point
°C
Rel
Hum
%
Delta-T

°C
Wind Press
QNH
hPa
Press
MSL
hPa
Rain
since
9 am
mm
Dir
 
Spd
km/h
Gust
km/h
Spd
kts
Gust
kts
21/11:30pm 5.8 4.5 4.1 89 0.7 CALM 0 0 0 0 1029.2 - 0.2

Latest Capital City Observations: Canberra | Sydney | Melbourne | Brisbane | Adelaide | Perth | Hobart | Darwin

Other Formats:

Comma delimited format used in spreadsheet applications
http://www.bom.gov.au/fwo/IDS60901/IDS60901.95671.axf

JavaScript Object Notation format (JSON) in row-major order
http://www.bom.gov.au/fwo/IDS60901/IDS60901.95671.json